sensor_id;sensor_type;location;lat;lon;timestamp;P1;durP1;ratioP1;P2;durP2;ratioP2
22284;SDS011;11311;52.192;20.900;2023-06-22T00:01:04;37.35;;;34.05;;
22284;SDS011;11311;52.192;20.900;2023-06-22T00:03:33;37.53;;;33.83;;
22284;SDS011;11311;52.192;20.900;2023-06-22T00:06:02;34.65;;;31.70;;
22284;SDS011;11311;52.192;20.900;2023-06-22T00:08:33;38.65;;;34.90;;
22284;SDS011;11311;52.192;20.900;2023-06-22T00:11:02;35.67;;;32.08;;
22284;SDS011;11311;52.192;20.900;2023-06-22T00:13:30;38.15;;;34.72;;
22284;SDS011;11311;52.192;20.900;2023-06-22T00:15:59;34.92;;;31.98;;
22284;SDS011;11311;52.192;20.900;2023-06-22T00:18:28;35.00;;;32.10;;
22284;SDS011;11311;52.192;20.900;2023-06-22T00:20:58;37.85;;;34.63;;
22284;SDS011;11311;52.192;20.900;2023-06-22T00:23:28;34.10;;;31.35;;
22284;SDS011;11311;52.192;20.900;2023-06-22T00:26:03;34.72;;;31.83;;
22284;SDS011;11311;52.192;20.900;2023-06-22T00:28:32;37.75;;;34.58;;
22284;SDS011;11311;52.192;20.900;2023-06-22T00:31:01;34.20;;;31.27;;
22284;SDS011;11311;52.192;20.900;2023-06-22T00:33:30;33.90;;;30.40;;
22284;SDS011;11311;52.192;20.900;2023-06-22T00:35:59;34.97;;;32.00;;
22284;SDS011;11311;52.192;20.900;2023-06-22T00:38:31;33.53;;;30.58;;
22284;SDS011;11311;52.192;20.900;2023-06-22T00:41:01;33.15;;;30.35;;
22284;SDS011;11311;52.192;20.900;2023-06-22T00:43:31;36.38;;;32.60;;
22284;SDS011;11311;52.192;20.900;2023-06-22T00:46:02;35.88;;;32.40;;
22284;SDS011;11311;52.192;20.900;2023-06-22T00:48:31;35.05;;;32.00;;
22284;SDS011;11311;52.192;20.900;2023-06-22T00:51:00;36.20;;;33.10;;
22284;SDS011;11311;52.192;20.900;2023-06-22T00:53:29;35.42;;;32.58;;
22284;SDS011;11311;52.192;20.900;2023-06-22T00:56:02;34.35;;;31.40;;
22284;SDS011;11311;52.192;20.900;2023-06-22T00:58:36;35.67;;;32.58;;
22284;SDS011;11311;52.192;20.900;2023-06-22T01:01:09;34.53;;;31.52;;
22284;SDS011;11311;52.192;20.900;2023-06-22T01:03:37;35.00;;;32.13;;
22284;SDS011;11311;52.192;20.900;2023-06-22T01:06:07;37.50;;;34.10;;
22284;SDS011;11311;52.192;20.900;2023-06-22T01:08:40;36.95;;;33.70;;
22284;SDS011;11311;52.192;20.900;2023-06-22T01:11:17;36.83;;;33.83;;
22284;SDS011;11311;52.192;20.900;2023-06-22T01:13:50;36.45;;;33.50;;
22284;SDS011;11311;52.192;20.900;2023-06-22T01:16:23;36.53;;;33.42;;
22284;SDS011;11311;52.192;20.900;2023-06-22T01:18:54;39.33;;;35.92;;
22284;SDS011;11311;52.192;20.900;2023-06-22T01:21:28;37.03;;;33.97;;
22284;SDS011;11311;52.192;20.900;2023-06-22T01:24:01;38.08;;;34.60;;
22284;SDS011;11311;52.192;20.900;2023-06-22T01:26:37;39.10;;;35.35;;
22284;SDS011;11311;52.192;20.900;2023-06-22T01:29:09;38.22;;;34.67;;
22284;SDS011;11311;52.192;20.900;2023-06-22T01:31:40;40.03;;;36.10;;
22284;SDS011;11311;52.192;20.900;2023-06-22T01:34:11;38.63;;;35.15;;
22284;SDS011;11311;52.192;20.900;2023-06-22T01:36:41;38.67;;;34.97;;
22284;SDS011;11311;52.192;20.900;2023-06-22T01:39:10;38.40;;;34.95;;
22284;SDS011;11311;52.192;20.900;2023-06-22T01:41:40;39.37;;;35.90;;
22284;SDS011;11311;52.192;20.900;2023-06-22T01:44:11;38.33;;;35.22;;
22284;SDS011;11311;52.192;20.900;2023-06-22T01:46:41;41.88;;;38.28;;
22284;SDS011;11311;52.192;20.900;2023-06-22T01:49:10;43.10;;;39.30;;
22284;SDS011;11311;52.192;20.900;2023-06-22T01:51:39;42.28;;;38.13;;
22284;SDS011;11311;52.192;20.900;2023-06-22T01:54:07;41.95;;;38.28;;
22284;SDS011;11311;52.192;20.900;2023-06-22T01:56:36;44.13;;;40.03;;
22284;SDS011;11311;52.192;20.900;2023-06-22T01:59:11;45.25;;;41.33;;
22284;SDS011;11311;52.192;20.900;2023-06-22T02:01:43;44.33;;;40.20;;
22284;SDS011;11311;52.192;20.900;2023-06-22T02:04:19;47.92;;;43.55;;
22284;SDS011;11311;52.192;20.900;2023-06-22T02:06:49;47.92;;;43.38;;
22284;SDS011;11311;52.192;20.900;2023-06-22T02:09:20;47.80;;;43.38;;
22284;SDS011;11311;52.192;20.900;2023-06-22T02:11:50;51.50;;;46.92;;
22284;SDS011;11311;52.192;20.900;2023-06-22T02:14:23;57.20;;;51.33;;
22284;SDS011;11311;52.192;20.900;2023-06-22T02:16:53;62.03;;;55.50;;
22284;SDS011;11311;52.192;20.900;2023-06-22T02:19:26;64.63;;;56.80;;
22284;SDS011;11311;52.192;20.900;2023-06-22T02:22:00;86.88;;;66.78;;
22284;SDS011;11311;52.192;20.900;2023-06-22T02:24:29;86.47;;;68.30;;
22284;SDS011;11311;52.192;20.900;2023-06-22T02:26:59;106.93;;;73.53;;
22284;SDS011;11311;52.192;20.900;2023-06-22T02:29:33;88.30;;;70.10;;
22284;SDS011;11311;52.192;20.900;2023-06-22T02:34:31;134.52;;;79.55;;
22284;SDS011;11311;52.192;20.900;2023-06-22T02:37:01;126.32;;;75.35;;
22284;SDS011;11311;52.192;20.900;2023-06-22T02:39:31;133.10;;;77.93;;
22284;SDS011;11311;52.192;20.900;2023-06-22T02:42:00;177.10;;;80.13;;
22284;SDS011;11311;52.192;20.900;2023-06-22T02:44:29;127.70;;;80.82;;
22284;SDS011;11311;52.192;20.900;2023-06-22T02:46:59;163.32;;;84.55;;
22284;SDS011;11311;52.192;20.900;2023-06-22T02:49:28;171.27;;;88.18;;
22284;SDS011;11311;52.192;20.900;2023-06-22T02:51:57;141.80;;;89.10;;
22284;SDS011;11311;52.192;20.900;2023-06-22T02:54:26;121.38;;;84.03;;
22284;SDS011;11311;52.192;20.900;2023-06-22T02:56:55;116.15;;;81.80;;
22284;SDS011;11311;52.192;20.900;2023-06-22T02:59:24;106.00;;;79.25;;
22284;SDS011;11311;52.192;20.900;2023-06-22T03:02:01;107.05;;;77.50;;
22284;SDS011;11311;52.192;20.900;2023-06-22T03:04:32;106.65;;;78.63;;
22284;SDS011;11311;52.192;20.900;2023-06-22T03:07:01;105.25;;;80.43;;
22284;SDS011;11311;52.192;20.900;2023-06-22T03:09:32;97.07;;;73.85;;
22284;SDS011;11311;52.192;20.900;2023-06-22T03:12:00;91.25;;;74.35;;
22284;SDS011;11311;52.192;20.900;2023-06-22T03:14:44;85.07;;;71.60;;
22284;SDS011;11311;52.192;20.900;2023-06-22T03:17:15;91.13;;;70.97;;
22284;SDS011;11311;52.192;20.900;2023-06-22T03:19:45;82.93;;;69.07;;
22284;SDS011;11311;52.192;20.900;2023-06-22T03:22:14;77.68;;;68.25;;
22284;SDS011;11311;52.192;20.900;2023-06-22T03:24:43;77.53;;;67.47;;
22284;SDS011;11311;52.192;20.900;2023-06-22T03:27:12;74.63;;;65.78;;
22284;SDS011;11311;52.192;20.900;2023-06-22T03:29:41;71.47;;;63.80;;
22284;SDS011;11311;52.192;20.900;2023-06-22T03:32:11;71.43;;;63.97;;
22284;SDS011;11311;52.192;20.900;2023-06-22T03:34:41;70.88;;;62.03;;
22284;SDS011;11311;52.192;20.900;2023-06-22T03:37:14;70.10;;;62.72;;
22284;SDS011;11311;52.192;20.900;2023-06-22T03:39:43;65.85;;;58.83;;
22284;SDS011;11311;52.192;20.900;2023-06-22T03:42:13;68.50;;;61.17;;
22284;SDS011;11311;52.192;20.900;2023-06-22T03:44:43;65.97;;;58.53;;
22284;SDS011;11311;52.192;20.900;2023-06-22T03:47:12;66.15;;;59.58;;
22284;SDS011;11311;52.192;20.900;2023-06-22T03:49:43;66.22;;;59.38;;
22284;SDS011;11311;52.192;20.900;2023-06-22T03:54:40;61.92;;;55.60;;
22284;SDS011;11311;52.192;20.900;2023-06-22T03:57:09;60.05;;;53.95;;
22284;SDS011;11311;52.192;20.900;2023-06-22T03:59:39;56.92;;;51.22;;
22284;SDS011;11311;52.192;20.900;2023-06-22T04:02:08;58.13;;;52.05;;
22284;SDS011;11311;52.192;20.900;2023-06-22T04:04:37;58.05;;;52.35;;
22284;SDS011;11311;52.192;20.900;2023-06-22T04:07:08;53.07;;;47.97;;
22284;SDS011;11311;52.192;20.900;2023-06-22T04:12:06;53.30;;;47.92;;
22284;SDS011;11311;52.192;20.900;2023-06-22T04:14:35;51.50;;;46.75;;
22284;SDS011;11311;52.192;20.900;2023-06-22T04:17:04;54.75;;;49.15;;
22284;SDS011;11311;52.192;20.900;2023-06-22T04:19:33;51.33;;;46.17;;
22284;SDS011;11311;52.192;20.900;2023-06-22T04:22:02;52.53;;;47.50;;
22284;SDS011;11311;52.192;20.900;2023-06-22T04:24:32;52.40;;;47.47;;
22284;SDS011;11311;52.192;20.900;2023-06-22T04:27:01;50.03;;;45.33;;
22284;SDS011;11311;52.192;20.900;2023-06-22T04:29:30;48.35;;;43.75;;
22284;SDS011;11311;52.192;20.900;2023-06-22T04:32:01;47.53;;;42.88;;
22284;SDS011;11311;52.192;20.900;2023-06-22T04:34:32;44.25;;;40.30;;
22284;SDS011;11311;52.192;20.900;2023-06-22T04:37:01;44.60;;;40.28;;
22284;SDS011;11311;52.192;20.900;2023-06-22T04:39:30;42.78;;;38.35;;
22284;SDS011;11311;52.192;20.900;2023-06-22T04:42:00;45.78;;;41.35;;
22284;SDS011;11311;52.192;20.900;2023-06-22T04:44:29;42.42;;;38.05;;
22284;SDS011;11311;52.192;20.900;2023-06-22T04:46:59;42.38;;;38.45;;
22284;SDS011;11311;52.192;20.900;2023-06-22T04:49:30;43.03;;;38.85;;
22284;SDS011;11311;52.192;20.900;2023-06-22T04:52:02;42.33;;;38.25;;
22284;SDS011;11311;52.192;20.900;2023-06-22T04:54:32;40.35;;;36.53;;
22284;SDS011;11311;52.192;20.900;2023-06-22T04:57:04;42.28;;;37.70;;
22284;SDS011;11311;52.192;20.900;2023-06-22T04:59:37;39.67;;;35.70;;
22284;SDS011;11311;52.192;20.900;2023-06-22T05:02:09;39.42;;;35.97;;
22284;SDS011;11311;52.192;20.900;2023-06-22T05:04:38;39.38;;;34.72;;
22284;SDS011;11311;52.192;20.900;2023-06-22T05:07:07;36.90;;;33.50;;
22284;SDS011;11311;52.192;20.900;2023-06-22T05:09:37;40.35;;;35.80;;
22284;SDS011;11311;52.192;20.900;2023-06-22T05:12:07;39.38;;;35.38;;
22284;SDS011;11311;52.192;20.900;2023-06-22T05:14:37;38.10;;;34.28;;
22284;SDS011;11311;52.192;20.900;2023-06-22T05:17:06;35.60;;;31.75;;
22284;SDS011;11311;52.192;20.900;2023-06-22T05:19:42;34.55;;;31.02;;
22284;SDS011;11311;52.192;20.900;2023-06-22T05:22:12;34.67;;;31.63;;
22284;SDS011;11311;52.192;20.900;2023-06-22T05:24:41;35.72;;;32.17;;
22284;SDS011;11311;52.192;20.900;2023-06-22T05:27:11;34.05;;;30.92;;
22284;SDS011;11311;52.192;20.900;2023-06-22T05:32:09;31.52;;;28.70;;
22284;SDS011;11311;52.192;20.900;2023-06-22T05:34:38;31.35;;;28.23;;
22284;SDS011;11311;52.192;20.900;2023-06-22T05:37:07;32.42;;;29.50;;
22284;SDS011;11311;52.192;20.900;2023-06-22T05:39:37;31.02;;;28.10;;
22284;SDS011;11311;52.192;20.900;2023-06-22T05:42:06;30.65;;;27.90;;
22284;SDS011;11311;52.192;20.900;2023-06-22T05:44:38;32.13;;;29.38;;
22284;SDS011;11311;52.192;20.900;2023-06-22T05:47:08;32.92;;;29.58;;
22284;SDS011;11311;52.192;20.900;2023-06-22T05:49:36;31.25;;;27.92;;
22284;SDS011;11311;52.192;20.900;2023-06-22T05:52:05;29.55;;;26.95;;
22284;SDS011;11311;52.192;20.900;2023-06-22T05:54:34;30.63;;;27.87;;
22284;SDS011;11311;52.192;20.900;2023-06-22T05:57:03;30.10;;;26.98;;
22284;SDS011;11311;52.192;20.900;2023-06-22T05:59:32;29.60;;;26.83;;
22284;SDS011;11311;52.192;20.900;2023-06-22T06:02:03;30.38;;;26.33;;
22284;SDS011;11311;52.192;20.900;2023-06-22T06:04:32;30.63;;;27.35;;
22284;SDS011;11311;52.192;20.900;2023-06-22T06:07:02;29.88;;;27.25;;
22284;SDS011;11311;52.192;20.900;2023-06-22T06:09:31;27.63;;;25.05;;
22284;SDS011;11311;52.192;20.900;2023-06-22T06:12:00;27.65;;;25.00;;
22284;SDS011;11311;52.192;20.900;2023-06-22T06:14:30;27.33;;;25.08;;
22284;SDS011;11311;52.192;20.900;2023-06-22T06:16:59;27.08;;;24.38;;
22284;SDS011;11311;52.192;20.900;2023-06-22T06:19:28;26.38;;;23.77;;
22284;SDS011;11311;52.192;20.900;2023-06-22T06:24:26;25.23;;;22.63;;
22284;SDS011;11311;52.192;20.900;2023-06-22T06:26:55;24.67;;;22.33;;
22284;SDS011;11311;52.192;20.900;2023-06-22T06:29:24;23.23;;;20.80;;
22284;SDS011;11311;52.192;20.900;2023-06-22T06:31:52;24.35;;;21.52;;
22284;SDS011;11311;52.192;20.900;2023-06-22T06:34:21;21.55;;;19.35;;
22284;SDS011;11311;52.192;20.900;2023-06-22T06:36:51;22.65;;;20.55;;
22284;SDS011;11311;52.192;20.900;2023-06-22T06:39:20;21.40;;;19.02;;
22284;SDS011;11311;52.192;20.900;2023-06-22T06:41:49;21.67;;;19.50;;
22284;SDS011;11311;52.192;20.900;2023-06-22T06:44:19;22.10;;;17.80;;
22284;SDS011;11311;52.192;20.900;2023-06-22T06:46:48;20.75;;;18.77;;
22284;SDS011;11311;52.192;20.900;2023-06-22T06:49:17;17.73;;;15.93;;
22284;SDS011;11311;52.192;20.900;2023-06-22T06:51:46;17.45;;;15.85;;
22284;SDS011;11311;52.192;20.900;2023-06-22T06:54:16;17.25;;;15.45;;
22284;SDS011;11311;52.192;20.900;2023-06-22T06:56:48;16.35;;;14.73;;
22284;SDS011;11311;52.192;20.900;2023-06-22T06:59:17;14.57;;;13.20;;
22284;SDS011;11311;52.192;20.900;2023-06-22T07:01:45;14.95;;;13.60;;
22284;SDS011;11311;52.192;20.900;2023-06-22T07:06:44;15.93;;;14.10;;
22284;SDS011;11311;52.192;20.900;2023-06-22T07:09:13;16.45;;;13.38;;
22284;SDS011;11311;52.192;20.900;2023-06-22T07:11:43;13.32;;;12.23;;
22284;SDS011;11311;52.192;20.900;2023-06-22T07:14:12;12.52;;;11.20;;
22284;SDS011;11311;52.192;20.900;2023-06-22T07:16:41;13.75;;;11.65;;
22284;SDS011;11311;52.192;20.900;2023-06-22T07:19:11;12.82;;;11.68;;
22284;SDS011;11311;52.192;20.900;2023-06-22T07:21:40;14.10;;;12.57;;
22284;SDS011;11311;52.192;20.900;2023-06-22T07:24:09;14.75;;;12.82;;
22284;SDS011;11311;52.192;20.900;2023-06-22T07:26:38;14.60;;;13.13;;
22284;SDS011;11311;52.192;20.900;2023-06-22T07:29:08;12.50;;;11.38;;
22284;SDS011;11311;52.192;20.900;2023-06-22T07:31:37;13.98;;;10.93;;
22284;SDS011;11311;52.192;20.900;2023-06-22T07:34:07;16.13;;;10.57;;
22284;SDS011;11311;52.192;20.900;2023-06-22T07:36:36;15.23;;;10.73;;
22284;SDS011;11311;52.192;20.900;2023-06-22T07:39:06;17.23;;;10.57;;
22284;SDS011;11311;52.192;20.900;2023-06-22T07:41:34;12.00;;;10.13;;
22284;SDS011;11311;52.192;20.900;2023-06-22T07:44:04;15.77;;;10.02;;
22284;SDS011;11311;52.192;20.900;2023-06-22T07:46:34;14.85;;;10.50;;
22284;SDS011;11311;52.192;20.900;2023-06-22T07:49:04;12.32;;;10.15;;
22284;SDS011;11311;52.192;20.900;2023-06-22T07:51:33;12.57;;;10.57;;
22284;SDS011;11311;52.192;20.900;2023-06-22T07:54:01;14.13;;;10.85;;
22284;SDS011;11311;52.192;20.900;2023-06-22T07:56:30;15.10;;;11.13;;
22284;SDS011;11311;52.192;20.900;2023-06-22T07:59:00;10.90;;;9.27;;
22284;SDS011;11311;52.192;20.900;2023-06-22T08:01:30;10.77;;;8.75;;
22284;SDS011;11311;52.192;20.900;2023-06-22T08:04:01;12.70;;;10.02;;
22284;SDS011;11311;52.192;20.900;2023-06-22T08:06:30;10.80;;;8.57;;
22284;SDS011;11311;52.192;20.900;2023-06-22T08:08:59;11.25;;;9.27;;
22284;SDS011;11311;52.192;20.900;2023-06-22T08:11:27;10.60;;;8.75;;
22284;SDS011;11311;52.192;20.900;2023-06-22T08:13:56;11.07;;;7.93;;
22284;SDS011;11311;52.192;20.900;2023-06-22T08:16:25;9.43;;;7.82;;
22284;SDS011;11311;52.192;20.900;2023-06-22T08:18:54;7.07;;;6.47;;
22284;SDS011;11311;52.192;20.900;2023-06-22T08:21:24;8.38;;;6.78;;
22284;SDS011;11311;52.192;20.900;2023-06-22T08:23:53;11.75;;;6.82;;
22284;SDS011;11311;52.192;20.900;2023-06-22T08:26:22;10.93;;;7.05;;
22284;SDS011;11311;52.192;20.900;2023-06-22T08:28:51;10.65;;;6.35;;
22284;SDS011;11311;52.192;20.900;2023-06-22T08:31:20;7.97;;;6.25;;
22284;SDS011;11311;52.192;20.900;2023-06-22T08:33:49;9.57;;;6.32;;
22284;SDS011;11311;52.192;20.900;2023-06-22T08:36:19;7.72;;;4.88;;
22284;SDS011;11311;52.192;20.900;2023-06-22T08:38:49;6.68;;;5.10;;
22284;SDS011;11311;52.192;20.900;2023-06-22T08:41:18;7.43;;;4.90;;
22284;SDS011;11311;52.192;20.900;2023-06-22T08:43:46;8.15;;;4.30;;
22284;SDS011;11311;52.192;20.900;2023-06-22T08:46:15;10.88;;;5.50;;
22284;SDS011;11311;52.192;20.900;2023-06-22T08:48:49;6.55;;;3.88;;
22284;SDS011;11311;52.192;20.900;2023-06-22T08:51:18;4.22;;;3.83;;
22284;SDS011;11311;52.192;20.900;2023-06-22T08:53:48;7.47;;;4.60;;
22284;SDS011;11311;52.192;20.900;2023-06-22T08:56:17;6.05;;;4.53;;
22284;SDS011;11311;52.192;20.900;2023-06-22T08:58:46;4.65;;;3.83;;
22284;SDS011;11311;52.192;20.900;2023-06-22T09:01:15;5.47;;;3.88;;
22284;SDS011;11311;52.192;20.900;2023-06-22T09:03:44;5.93;;;4.30;;
22284;SDS011;11311;52.192;20.900;2023-06-22T09:06:27;10.30;;;5.40;;
22284;SDS011;11311;52.192;20.900;2023-06-22T09:08:59;5.50;;;4.72;;
22284;SDS011;11311;52.192;20.900;2023-06-22T09:11:29;7.05;;;4.55;;
22284;SDS011;11311;52.192;20.900;2023-06-22T09:13:57;8.90;;;4.95;;
22284;SDS011;11311;52.192;20.900;2023-06-22T09:16:26;6.10;;;4.30;;
22284;SDS011;11311;52.192;20.900;2023-06-22T09:18:55;4.97;;;4.35;;
22284;SDS011;11311;52.192;20.900;2023-06-22T09:21:24;5.65;;;4.28;;
22284;SDS011;11311;52.192;20.900;2023-06-22T09:23:53;8.10;;;4.15;;
22284;SDS011;11311;52.192;20.900;2023-06-22T09:26:23;5.13;;;3.38;;
22284;SDS011;11311;52.192;20.900;2023-06-22T09:28:52;6.03;;;3.33;;
22284;SDS011;11311;52.192;20.900;2023-06-22T09:31:21;8.18;;;3.92;;
22284;SDS011;11311;52.192;20.900;2023-06-22T09:33:53;6.32;;;3.88;;
22284;SDS011;11311;52.192;20.900;2023-06-22T09:36:22;4.22;;;3.33;;
22284;SDS011;11311;52.192;20.900;2023-06-22T09:38:54;3.75;;;3.45;;
22284;SDS011;11311;52.192;20.900;2023-06-22T09:41:27;9.40;;;4.07;;
22284;SDS011;11311;52.192;20.900;2023-06-22T09:44:00;6.82;;;4.13;;
22284;SDS011;11311;52.192;20.900;2023-06-22T09:46:28;5.20;;;3.72;;
22284;SDS011;11311;52.192;20.900;2023-06-22T09:48:57;4.63;;;4.05;;
22284;SDS011;11311;52.192;20.900;2023-06-22T09:51:26;6.30;;;4.22;;
22284;SDS011;11311;52.192;20.900;2023-06-22T09:53:55;5.93;;;4.53;;
22284;SDS011;11311;52.192;20.900;2023-06-22T09:58:56;6.10;;;4.10;;
22284;SDS011;11311;52.192;20.900;2023-06-22T10:01:44;5.07;;;3.78;;
22284;SDS011;11311;52.192;20.900;2023-06-22T10:04:13;6.07;;;3.70;;
22284;SDS011;11311;52.192;20.900;2023-06-22T10:06:42;5.80;;;4.60;;
22284;SDS011;11311;52.192;20.900;2023-06-22T10:09:11;5.60;;;4.35;;
22284;SDS011;11311;52.192;20.900;2023-06-22T10:11:42;7.78;;;5.13;;
22284;SDS011;11311;52.192;20.900;2023-06-22T10:14:11;6.72;;;4.22;;
22284;SDS011;11311;52.192;20.900;2023-06-22T10:16:39;7.25;;;4.13;;
22284;SDS011;11311;52.192;20.900;2023-06-22T10:19:08;8.75;;;4.63;;
22284;SDS011;11311;52.192;20.900;2023-06-22T10:21:37;6.93;;;4.40;;
22284;SDS011;11311;52.192;20.900;2023-06-22T10:24:06;12.55;;;4.80;;
22284;SDS011;11311;52.192;20.900;2023-06-22T10:26:35;8.05;;;3.83;;
22284;SDS011;11311;52.192;20.900;2023-06-22T10:29:06;13.45;;;4.60;;
22284;SDS011;11311;52.192;20.900;2023-06-22T10:31:43;8.23;;;3.70;;
22284;SDS011;11311;52.192;20.900;2023-06-22T10:34:11;7.68;;;4.15;;
22284;SDS011;11311;52.192;20.900;2023-06-22T10:36:40;4.55;;;4.15;;
22284;SDS011;11311;52.192;20.900;2023-06-22T10:39:09;6.72;;;4.15;;
22284;SDS011;11311;52.192;20.900;2023-06-22T10:41:38;4.97;;;3.95;;
22284;SDS011;11311;52.192;20.900;2023-06-22T10:44:08;7.57;;;4.35;;
22284;SDS011;11311;52.192;20.900;2023-06-22T10:46:37;5.30;;;4.40;;
22284;SDS011;11311;52.192;20.900;2023-06-22T10:49:06;4.38;;;3.83;;
22284;SDS011;11311;52.192;20.900;2023-06-22T10:51:35;7.30;;;3.60;;
22284;SDS011;11311;52.192;20.900;2023-06-22T10:54:04;9.63;;;3.72;;
22284;SDS011;11311;52.192;20.900;2023-06-22T10:56:33;7.03;;;4.75;;
22284;SDS011;11311;52.192;20.900;2023-06-22T10:59:02;4.80;;;4.40;;
22284;SDS011;11311;52.192;20.900;2023-06-22T11:01:31;7.72;;;4.07;;
22284;SDS011;11311;52.192;20.900;2023-06-22T11:04:03;4.35;;;3.63;;
22284;SDS011;11311;52.192;20.900;2023-06-22T11:09:01;5.78;;;3.88;;
22284;SDS011;11311;52.192;20.900;2023-06-22T11:11:51;5.55;;;4.03;;
22284;SDS011;11311;52.192;20.900;2023-06-22T11:14:21;10.65;;;4.18;;
22284;SDS011;11311;52.192;20.900;2023-06-22T11:16:51;4.40;;;4.07;;
22284;SDS011;11311;52.192;20.900;2023-06-22T11:19:20;7.35;;;4.38;;
22284;SDS011;11311;52.192;20.900;2023-06-22T11:21:49;8.05;;;4.45;;
22284;SDS011;11311;52.192;20.900;2023-06-22T11:24:17;5.05;;;4.13;;
22284;SDS011;11311;52.192;20.900;2023-06-22T11:26:46;4.43;;;4.03;;
22284;SDS011;11311;52.192;20.900;2023-06-22T11:29:15;4.22;;;3.65;;
22284;SDS011;11311;52.192;20.900;2023-06-22T11:31:59;7.60;;;4.63;;
22284;SDS011;11311;52.192;20.900;2023-06-22T11:34:28;6.40;;;3.85;;
22284;SDS011;11311;52.192;20.900;2023-06-22T11:36:57;7.50;;;4.37;;
22284;SDS011;11311;52.192;20.900;2023-06-22T11:39:27;5.07;;;4.15;;
22284;SDS011;11311;52.192;20.900;2023-06-22T11:42:08;4.97;;;3.70;;
22284;SDS011;11311;52.192;20.900;2023-06-22T11:44:38;7.00;;;4.10;;
22284;SDS011;11311;52.192;20.900;2023-06-22T11:47:08;5.00;;;4.28;;
22284;SDS011;11311;52.192;20.900;2023-06-22T11:49:36;5.85;;;3.75;;
22284;SDS011;11311;52.192;20.900;2023-06-22T11:52:05;7.00;;;3.95;;
22284;SDS011;11311;52.192;20.900;2023-06-22T11:57:03;6.70;;;4.17;;
22284;SDS011;11311;52.192;20.900;2023-06-22T12:02:01;6.07;;;4.07;;
22284;SDS011;11311;52.192;20.900;2023-06-22T12:07:00;7.20;;;3.85;;
22284;SDS011;11311;52.192;20.900;2023-06-22T12:09:29;4.47;;;3.72;;
22284;SDS011;11311;52.192;20.900;2023-06-22T12:11:58;4.72;;;3.67;;
22284;SDS011;11311;52.192;20.900;2023-06-22T12:14:27;3.83;;;3.30;;
22284;SDS011;11311;52.192;20.900;2023-06-22T12:16:57;12.55;;;4.30;;
22284;SDS011;11311;52.192;20.900;2023-06-22T12:19:26;5.45;;;3.80;;
22284;SDS011;11311;52.192;20.900;2023-06-22T12:21:56;7.65;;;4.13;;
22284;SDS011;11311;52.192;20.900;2023-06-22T12:24:25;7.18;;;4.25;;
22284;SDS011;11311;52.192;20.900;2023-06-22T12:26:54;4.38;;;3.80;;
22284;SDS011;11311;52.192;20.900;2023-06-22T12:29:22;4.13;;;3.10;;
22284;SDS011;11311;52.192;20.900;2023-06-22T12:31:51;5.25;;;3.53;;
22284;SDS011;11311;52.192;20.900;2023-06-22T12:34:20;5.43;;;3.70;;
22284;SDS011;11311;52.192;20.900;2023-06-22T12:36:49;5.25;;;3.50;;
22284;SDS011;11311;52.192;20.900;2023-06-22T12:39:19;6.13;;;3.35;;
22284;SDS011;11311;52.192;20.900;2023-06-22T12:41:48;8.55;;;3.13;;
22284;SDS011;11311;52.192;20.900;2023-06-22T12:44:17;4.07;;;3.40;;
22284;SDS011;11311;52.192;20.900;2023-06-22T12:46:45;4.35;;;3.30;;
22284;SDS011;11311;52.192;20.900;2023-06-22T12:49:14;4.55;;;3.58;;
22284;SDS011;11311;52.192;20.900;2023-06-22T12:51:43;7.45;;;3.65;;
22284;SDS011;11311;52.192;20.900;2023-06-22T12:56:43;4.50;;;3.13;;
22284;SDS011;11311;52.192;20.900;2023-06-22T12:59:12;6.65;;;3.60;;
22284;SDS011;11311;52.192;20.900;2023-06-22T13:01:41;4.68;;;3.72;;
22284;SDS011;11311;52.192;20.900;2023-06-22T13:04:11;5.72;;;3.58;;
22284;SDS011;11311;52.192;20.900;2023-06-22T13:06:42;8.30;;;3.50;;
22284;SDS011;11311;52.192;20.900;2023-06-22T13:09:11;4.65;;;3.38;;
22284;SDS011;11311;52.192;20.900;2023-06-22T13:11:49;3.92;;;3.15;;
22284;SDS011;11311;52.192;20.900;2023-06-22T13:14:19;1203.07;;;131.93;;
22284;SDS011;11311;52.192;20.900;2023-06-22T13:16:47;7.60;;;3.75;;
22284;SDS011;11311;52.192;20.900;2023-06-22T13:19:16;4.15;;;3.75;;
22284;SDS011;11311;52.192;20.900;2023-06-22T13:21:45;5.82;;;2.70;;
22284;SDS011;11311;52.192;20.900;2023-06-22T13:24:14;8.57;;;3.10;;
22284;SDS011;11311;52.192;20.900;2023-06-22T13:26:43;9.57;;;3.17;;
22284;SDS011;11311;52.192;20.900;2023-06-22T13:29:13;4.65;;;2.70;;
22284;SDS011;11311;52.192;20.900;2023-06-22T13:31:42;4.82;;;2.72;;
22284;SDS011;11311;52.192;20.900;2023-06-22T13:34:11;3.38;;;2.78;;
22284;SDS011;11311;52.192;20.900;2023-06-22T13:36:40;3.80;;;3.47;;
22284;SDS011;11311;52.192;20.900;2023-06-22T13:39:09;4.10;;;3.30;;
22284;SDS011;11311;52.192;20.900;2023-06-22T13:41:37;4.40;;;3.23;;
22284;SDS011;11311;52.192;20.900;2023-06-22T13:44:06;8.20;;;3.20;;
22284;SDS011;11311;52.192;20.900;2023-06-22T13:46:36;4.88;;;3.00;;
22284;SDS011;11311;52.192;20.900;2023-06-22T13:49:05;4.82;;;3.40;;
22284;SDS011;11311;52.192;20.900;2023-06-22T13:51:34;6.27;;;2.93;;
22284;SDS011;11311;52.192;20.900;2023-06-22T13:54:04;3.38;;;3.08;;
22284;SDS011;11311;52.192;20.900;2023-06-22T13:56:53;3.60;;;3.33;;
22284;SDS011;11311;52.192;20.900;2023-06-22T13:59:22;4.30;;;3.83;;
22284;SDS011;11311;52.192;20.900;2023-06-22T14:01:55;3.88;;;3.20;;
22284;SDS011;11311;52.192;20.900;2023-06-22T14:04:23;5.07;;;3.25;;
22284;SDS011;11311;52.192;20.900;2023-06-22T14:06:52;8.23;;;3.45;;
22284;SDS011;11311;52.192;20.900;2023-06-22T14:09:23;5.03;;;2.85;;
22284;SDS011;11311;52.192;20.900;2023-06-22T14:11:53;5.25;;;3.10;;
22284;SDS011;11311;52.192;20.900;2023-06-22T14:14:22;6.50;;;3.58;;
22284;SDS011;11311;52.192;20.900;2023-06-22T14:16:51;11.60;;;3.50;;
22284;SDS011;11311;52.192;20.900;2023-06-22T14:19:21;5.03;;;3.13;;
22284;SDS011;11311;52.192;20.900;2023-06-22T14:21:50;3.83;;;3.53;;
22284;SDS011;11311;52.192;20.900;2023-06-22T14:24:19;5.32;;;3.40;;
22284;SDS011;11311;52.192;20.900;2023-06-22T14:26:51;6.45;;;3.58;;
22284;SDS011;11311;52.192;20.900;2023-06-22T14:29:20;5.07;;;3.25;;
22284;SDS011;11311;52.192;20.900;2023-06-22T14:31:49;6.87;;;4.13;;
22284;SDS011;11311;52.192;20.900;2023-06-22T14:34:18;9.25;;;4.10;;
22284;SDS011;11311;52.192;20.900;2023-06-22T14:36:48;6.22;;;4.00;;
22284;SDS011;11311;52.192;20.900;2023-06-22T14:39:17;7.00;;;3.72;;
22284;SDS011;11311;52.192;20.900;2023-06-22T14:41:47;5.53;;;3.35;;
22284;SDS011;11311;52.192;20.900;2023-06-22T14:44:16;7.95;;;4.22;;
22284;SDS011;11311;52.192;20.900;2023-06-22T14:46:45;3.90;;;3.53;;
22284;SDS011;11311;52.192;20.900;2023-06-22T14:49:15;11.87;;;4.03;;
22284;SDS011;11311;52.192;20.900;2023-06-22T14:51:44;4.28;;;3.88;;
22284;SDS011;11311;52.192;20.900;2023-06-22T14:54:14;6.63;;;3.47;;
22284;SDS011;11311;52.192;20.900;2023-06-22T14:56:43;10.30;;;4.15;;
22284;SDS011;11311;52.192;20.900;2023-06-22T14:59:12;10.38;;;3.50;;
22284;SDS011;11311;52.192;20.900;2023-06-22T15:01:40;4.35;;;4.05;;
22284;SDS011;11311;52.192;20.900;2023-06-22T15:04:12;3.97;;;3.63;;